< < Back
Terminal Aerodrome Forecast


Current Version              Previous Versions:   1  2  3  4  5  6  7  8  9  

Terminal Aerodrome Forecast

773
FTUS42 KJAX 040923 AAC
TAFSSI
TAF AMD
KSSI 040923Z 0409/0506 26007KT P6SM VCSH BKN010 BKN100 OVC250
      TEMPO 0409/0413 5SM SHRA BR SCT005 OVC010
     FM041400 28009KT P6SM SCT040 SCT150 BKN200
     FM041700 30010KT P6SM FEW050 SCT200=

Latest METAR

540
SAUS70 KWBC 050100 RRI
MTRSSI
METAR KSSI 050053Z AUTO 30005KT 10SM FEW065 23/11 A2966 RMK AO2 SLP046
T02280111


USA.gov is the U.S. government's official web portal to all federal, state and local government web resources and services.